createdAt,value
2022-12-11T00:02:08.501Z,1.54
2022-12-11T00:04:43.123Z,1.56
2022-12-11T00:07:17.302Z,1.53
2022-12-11T00:09:53.161Z,1.54
2022-12-11T00:12:27.338Z,1.56
2022-12-11T00:15:01.731Z,1.53
2022-12-11T00:17:38.163Z,1.52
2022-12-11T00:20:13.110Z,1.49
2022-12-11T00:22:47.190Z,1.61
2022-12-11T00:25:23.043Z,1.59
2022-12-11T00:27:57.481Z,1.52
2022-12-11T00:30:31.937Z,1.54
2022-12-11T00:33:06.131Z,1.52
2022-12-11T00:35:41.040Z,1.42
2022-12-11T00:38:17.147Z,1.49
2022-12-11T00:40:53.224Z,1.59
2022-12-11T00:43:27.387Z,1.52
2022-12-11T00:46:02.492Z,1.51
2022-12-11T00:48:37.145Z,1.50
2022-12-11T00:51:12.172Z,1.47
2022-12-11T00:53:46.391Z,1.50
2022-12-11T00:56:24.606Z,1.40
2022-12-11T00:58:58.783Z,1.36
2022-12-11T01:01:33.546Z,1.34
2022-12-11T01:04:07.798Z,1.36
2022-12-11T01:06:42.281Z,1.40
2022-12-11T01:09:34.157Z,1.38
2022-12-11T01:12:09.967Z,1.26
2022-12-11T01:14:44.223Z,1.25
2022-12-11T01:17:18.616Z,1.22
2022-12-11T01:19:54.977Z,1.20
2022-12-11T01:22:29.450Z,1.15
2022-12-11T01:25:03.568Z,1.17
2022-12-11T01:27:40.488Z,1.08
2022-12-11T01:30:15.436Z,1.02
2022-12-11T01:32:50.555Z,1.01
2022-12-11T01:35:24.986Z,0.94
2022-12-11T01:37:59.414Z,0.99
2022-12-11T01:40:33.947Z,0.92
2022-12-11T01:43:12.760Z,0.90
2022-12-11T01:45:49.316Z,0.91
2022-12-11T01:48:27.276Z,0.98
2022-12-11T01:51:03.851Z,0.94
2022-12-11T01:53:41.832Z,0.91
2022-12-11T01:56:16.282Z,0.94
2022-12-11T01:58:56.312Z,0.81
2022-12-11T02:01:36.143Z,0.85
2022-12-11T02:04:12.267Z,0.83
2022-12-11T02:06:49.339Z,0.88
2022-12-11T02:09:27.470Z,0.82
2022-12-11T02:12:08.097Z,0.79
2022-12-11T02:14:48.704Z,0.82
2022-12-11T02:17:27.220Z,0.79
2022-12-11T02:20:09.550Z,0.78
2022-12-11T02:23:18.184Z,0.79
2022-12-11T02:25:58.645Z,0.84
2022-12-11T02:28:36.455Z,0.82
2022-12-11T02:31:15.469Z,0.83
2022-12-11T02:33:56.326Z,0.76
2022-12-11T02:36:35.008Z,0.75
2022-12-11T02:39:13.533Z,0.73
2022-12-11T02:41:51.202Z,0.83
2022-12-11T02:44:31.658Z,0.78
2022-12-11T02:47:09.565Z,0.78
2022-12-11T02:49:46.857Z,0.82
2022-12-11T02:52:25.296Z,0.87
2022-12-11T02:55:02.138Z,0.84
2022-12-11T02:57:44.112Z,0.86
2022-12-11T03:00:20.963Z,0.95
2022-12-11T03:02:55.422Z,0.97
2022-12-11T03:05:31.101Z,0.96
2022-12-11T03:08:05.678Z,1.01
2022-12-11T03:10:40.553Z,0.93
2022-12-11T03:13:18.864Z,0.98
2022-12-11T03:16:05.648Z,0.88
2022-12-11T03:18:47.910Z,1.02
2022-12-11T03:21:28.320Z,1.05
2022-12-11T03:24:06.965Z,1.20
2022-12-11T03:26:54.476Z,1.12
2022-12-11T03:29:38.050Z,1.12
2022-12-11T03:32:20.035Z,1.13
2022-12-11T03:34:58.647Z,1.14
2022-12-11T03:37:37.665Z,1.12
2022-12-11T03:40:16.058Z,1.21
2022-12-11T03:42:53.359Z,1.17
2022-12-11T03:45:30.866Z,1.19
2022-12-11T03:48:08.386Z,1.22
2022-12-11T03:50:43.871Z,1.23
2022-12-11T03:53:22.625Z,1.26
2022-12-11T03:55:59.386Z,1.21
2022-12-11T03:58:35.833Z,1.21
2022-12-11T04:01:11.106Z,1.25
2022-12-11T04:03:46.879Z,1.27
2022-12-11T04:06:21.189Z,1.27
2022-12-11T04:08:55.623Z,1.24
2022-12-11T04:11:35.684Z,1.21
2022-12-11T04:14:29.787Z,1.24
2022-12-11T04:17:03.836Z,1.22
2022-12-11T04:20:09.093Z,1.20
2022-12-11T04:23:01.007Z,1.18
2022-12-11T04:25:35.434Z,1.25
2022-12-11T04:28:09.900Z,1.28
2022-12-11T04:30:50.457Z,1.34
2022-12-11T04:33:24.626Z,1.34
2022-12-11T04:36:01.346Z,1.31
2022-12-11T04:38:35.482Z,1.22
2022-12-11T04:41:12.490Z,1.29
2022-12-11T04:43:46.619Z,1.20
2022-12-11T04:46:25.356Z,1.22
2022-12-11T04:49:00.391Z,1.31
2022-12-11T04:51:36.146Z,1.29
2022-12-11T04:54:10.415Z,1.29
2022-12-11T04:56:44.885Z,1.28
2022-12-11T04:59:18.966Z,1.25
2022-12-11T05:01:53.361Z,1.28
2022-12-11T05:04:27.620Z,1.31
2022-12-11T05:07:03.832Z,1.33
2022-12-11T05:09:38.377Z,1.26
2022-12-11T05:12:12.840Z,1.34
2022-12-11T05:14:47.247Z,1.29
2022-12-11T05:17:22.761Z,1.29
2022-12-11T05:19:56.946Z,1.33
2022-12-11T05:22:33.132Z,1.27
2022-12-11T05:25:08.532Z,1.24
2022-12-11T05:27:43.370Z,1.27
2022-12-11T05:30:17.660Z,1.27
2022-12-11T05:32:52.135Z,1.32
2022-12-11T05:35:26.271Z,1.35
2022-12-11T05:38:02.203Z,1.37
2022-12-11T05:40:36.384Z,1.36
2022-12-11T05:43:10.924Z,1.34
2022-12-11T05:45:45.113Z,1.38
2022-12-11T05:48:19.594Z,1.33
2022-12-11T05:51:00.718Z,1.29
2022-12-11T05:53:38.394Z,1.34
2022-12-11T05:56:14.140Z,1.28
2022-12-11T05:58:49.847Z,1.32
2022-12-11T06:01:26.055Z,1.32
2022-12-11T06:04:01.383Z,1.29
2022-12-11T06:06:35.948Z,1.28
2022-12-11T06:09:15.008Z,1.31
2022-12-11T06:11:49.197Z,1.33
2022-12-11T06:14:23.598Z,1.28
2022-12-11T06:16:57.742Z,1.26
2022-12-11T06:19:36.771Z,1.29
2022-12-11T06:22:11.286Z,1.35
2022-12-11T06:24:48.187Z,1.33
2022-12-11T06:27:22.443Z,1.41
2022-12-11T06:29:57.353Z,2.70
2022-12-11T06:32:31.498Z,1.67
2022-12-11T06:35:09.330Z,1.57
2022-12-11T06:37:43.692Z,1.58
2022-12-11T06:40:19.999Z,1.53
2022-12-11T06:42:55.423Z,1.57
2022-12-11T06:45:29.904Z,1.54
2022-12-11T06:48:06.620Z,1.63
2022-12-11T06:50:41.054Z,1.66
2022-12-11T06:53:17.647Z,1.61
2022-12-11T06:55:53.511Z,1.58
2022-12-11T06:58:27.678Z,1.58
2022-12-11T07:01:02.228Z,1.66
2022-12-11T07:03:36.812Z,1.68
2022-12-11T07:06:11.546Z,1.69
2022-12-11T07:08:46.197Z,1.70
2022-12-11T07:11:22.916Z,1.75
2022-12-11T07:14:00.680Z,1.74
2022-12-11T07:16:35.156Z,1.76
2022-12-11T07:19:11.276Z,1.80
2022-12-11T07:21:45.771Z,1.74
2022-12-11T07:24:20.396Z,1.77
2022-12-11T07:26:56.442Z,1.69
2022-12-11T07:29:30.577Z,1.92
2022-12-11T07:32:05.553Z,3.39
2022-12-11T07:34:40.181Z,2.34
2022-12-11T07:37:14.646Z,2.90
2022-12-11T07:39:51.441Z,2.40
2022-12-11T07:42:27.270Z,2.18
2022-12-11T07:45:01.543Z,2.05
2022-12-11T07:47:36.356Z,1.99
2022-12-11T07:50:13.529Z,1.97
2022-12-11T07:52:47.976Z,1.96
2022-12-11T07:55:22.448Z,1.97
2022-12-11T07:57:58.304Z,1.93
2022-12-11T08:00:32.975Z,2.00
2022-12-11T08:03:07.429Z,1.97
2022-12-11T08:05:47.791Z,1.89
2022-12-11T08:08:22.469Z,2.47
2022-12-11T08:10:56.686Z,2.18
2022-12-11T08:13:33.630Z,2.07
2022-12-11T08:16:10.160Z,2.05
2022-12-11T08:18:45.578Z,2.05
2022-12-11T08:21:22.160Z,2.03
2022-12-11T08:23:57.239Z,1.97
2022-12-11T08:26:32.997Z,1.96
2022-12-11T08:29:09.039Z,1.94
2022-12-11T08:31:43.698Z,2.04
2022-12-11T08:34:18.755Z,2.02
2022-12-11T08:36:54.062Z,1.98
2022-12-11T08:39:28.518Z,2.11
2022-12-11T08:42:02.966Z,3.71
2022-12-11T08:44:38.799Z,2.91
2022-12-11T08:47:13.085Z,2.56
2022-12-11T08:49:47.511Z,2.36
2022-12-11T08:52:21.690Z,2.18
2022-12-11T08:54:56.376Z,2.16
2022-12-11T08:57:30.698Z,2.17
2022-12-11T09:00:10.179Z,2.29
2022-12-11T09:02:44.553Z,2.29
2022-12-11T09:05:19.255Z,2.31
2022-12-11T09:07:53.531Z,2.41
2022-12-11T09:10:28.426Z,2.38
2022-12-11T09:13:02.703Z,2.36
2022-12-11T09:15:42.190Z,2.33
2022-12-11T09:18:16.456Z,2.41
2022-12-11T09:20:59.689Z,2.48
2022-12-11T09:23:34.292Z,2.50
2022-12-11T09:26:11.117Z,2.50
2022-12-11T09:28:47.020Z,2.63
2022-12-11T09:31:27.156Z,2.50
2022-12-11T09:34:02.851Z,2.46
2022-12-11T09:36:39.353Z,2.47
2022-12-11T09:39:14.973Z,2.47
2022-12-11T09:41:56.785Z,2.88
2022-12-11T09:44:39.471Z,2.52
2022-12-11T09:47:29.082Z,2.51
2022-12-11T09:50:14.216Z,2.48
2022-12-11T09:53:04.443Z,2.44
2022-12-11T09:55:50.465Z,2.50
2022-12-11T09:58:33.631Z,2.45
2022-12-11T10:01:16.160Z,2.38
2022-12-11T10:04:11.899Z,2.28
2022-12-11T10:06:51.876Z,2.41
2022-12-11T10:09:38.562Z,2.44
2022-12-11T10:12:38.393Z,2.42
2022-12-11T10:15:30.158Z,2.37
2022-12-11T10:18:07.783Z,2.38
2022-12-11T10:20:45.217Z,2.45
2022-12-11T10:23:22.786Z,2.51
2022-12-11T10:26:05.006Z,2.55
2022-12-11T10:28:39.320Z,2.50
2022-12-11T10:31:19.480Z,2.41
2022-12-11T10:34:01.324Z,2.43
2022-12-11T10:36:38.948Z,2.43
2022-12-11T10:39:15.503Z,2.67
2022-12-11T10:41:51.843Z,2.55
2022-12-11T10:44:27.637Z,2.78
2022-12-11T10:47:08.429Z,2.80
2022-12-11T10:49:44.975Z,2.77
2022-12-11T10:52:24.434Z,2.91
2022-12-11T10:55:03.675Z,2.88
2022-12-11T10:57:40.492Z,2.74
2022-12-11T11:00:37.763Z,2.97
2022-12-11T11:03:23.833Z,2.93
2022-12-11T11:06:05.101Z,3.01
2022-12-11T11:08:44.230Z,3.04
2022-12-11T11:11:26.309Z,3.00
2022-12-11T11:14:15.925Z,2.99
2022-12-11T11:16:51.928Z,3.14
2022-12-11T11:19:30.804Z,3.28
2022-12-11T11:22:08.483Z,2.92
2022-12-11T11:24:48.453Z,2.99
2022-12-11T11:31:00.408Z,3.02
2022-12-11T11:33:37.987Z,2.97
2022-12-11T11:36:22.225Z,3.14
2022-12-11T11:39:20.374Z,3.51
2022-12-11T11:42:04.113Z,3.73
2022-12-11T11:44:44.721Z,3.65
2022-12-11T11:47:23.273Z,3.29
2022-12-11T11:50:04.235Z,3.20
2022-12-11T11:52:45.485Z,3.02
2022-12-11T11:55:29.906Z,2.88
2022-12-11T11:58:11.190Z,2.77
2022-12-11T12:00:45.737Z,2.74
2022-12-11T12:03:24.494Z,2.69
2022-12-11T12:06:15.078Z,2.74
2022-12-11T12:09:03.723Z,2.71
2022-12-11T12:11:45.931Z,2.69
2022-12-11T12:17:28.053Z,2.70
2022-12-11T12:20:18.183Z,2.63
2022-12-11T12:23:03.519Z,2.66
2022-12-11T12:25:42.806Z,2.57
2022-12-11T12:28:25.305Z,2.71
2022-12-11T12:31:14.982Z,2.73
2022-12-11T12:34:04.090Z,2.73
2022-12-11T12:36:47.598Z,2.65
2022-12-11T12:42:58.219Z,2.66
2022-12-11T12:45:41.347Z,2.50
2022-12-11T12:48:17.940Z,2.52
2022-12-11T12:50:52.912Z,2.49
2022-12-11T12:53:32.599Z,2.55
2022-12-11T12:56:08.430Z,2.51
2022-12-11T12:58:44.927Z,2.55
2022-12-11T13:01:21.921Z,2.51
2022-12-11T13:04:01.817Z,2.50
2022-12-11T13:06:39.807Z,2.50
2022-12-11T13:09:19.840Z,2.54
2022-12-11T13:11:57.931Z,2.45
2022-12-11T13:14:33.906Z,2.41
2022-12-11T13:17:27.675Z,2.56
2022-12-11T13:20:16.626Z,2.47
2022-12-11T13:22:55.883Z,2.47
2022-12-11T13:25:35.194Z,2.45
2022-12-11T13:28:24.960Z,2.46
2022-12-11T13:31:02.764Z,2.47
2022-12-11T13:33:44.440Z,2.46
2022-12-11T13:36:31.569Z,2.42
2022-12-11T13:39:10.973Z,2.52
2022-12-11T13:41:48.575Z,2.52
2022-12-11T13:44:28.700Z,2.50
2022-12-11T13:47:05.156Z,2.45
2022-12-11T13:49:44.306Z,2.38
2022-12-11T13:52:22.510Z,2.48
2022-12-11T13:54:59.814Z,2.42
2022-12-11T13:57:34.035Z,2.31
2022-12-11T14:00:22.838Z,2.21
2022-12-11T14:03:00.605Z,2.26
2022-12-11T14:05:35.841Z,2.26
2022-12-11T14:08:13.595Z,2.31
2022-12-11T14:10:53.606Z,3.56
2022-12-11T14:13:34.066Z,3.46
2022-12-11T14:16:09.041Z,2.80
2022-12-11T14:18:44.140Z,2.63
2022-12-11T14:21:21.111Z,2.50
2022-12-11T14:23:58.775Z,2.24
2022-12-11T14:26:35.340Z,2.18
2022-12-11T14:29:25.984Z,2.33
2022-12-11T14:32:03.765Z,2.23
2022-12-11T14:34:43.634Z,2.22
2022-12-11T14:37:22.105Z,2.12
2022-12-11T14:40:02.493Z,1.98
2022-12-11T14:42:42.236Z,2.06
2022-12-11T14:45:22.056Z,2.04
2022-12-11T14:47:57.839Z,1.81
2022-12-11T14:50:39.896Z,1.93
2022-12-11T14:53:20.417Z,1.90
2022-12-11T14:55:56.932Z,1.82
2022-12-11T14:58:32.389Z,1.92
2022-12-11T15:01:09.208Z,1.84
2022-12-11T15:03:43.936Z,1.82
2022-12-11T15:06:27.126Z,1.80
2022-12-11T15:09:11.637Z,1.85
2022-12-11T15:11:50.104Z,2.14
2022-12-11T15:14:25.635Z,2.96
2022-12-11T15:17:00.379Z,2.31
2022-12-11T15:19:37.833Z,1.87
2022-12-11T15:22:17.782Z,1.76
2022-12-11T15:24:54.008Z,1.69
2022-12-11T15:27:35.659Z,1.76
2022-12-11T15:30:32.681Z,1.70
2022-12-11T15:33:22.327Z,1.72
2022-12-11T15:36:02.847Z,1.71
2022-12-11T15:38:40.743Z,1.52
2022-12-11T15:41:17.957Z,1.44
2022-12-11T15:43:58.958Z,1.72
2022-12-11T15:46:38.174Z,1.69
2022-12-11T15:49:13.759Z,1.50
2022-12-11T15:51:47.930Z,1.46
2022-12-11T15:54:22.527Z,1.51
2022-12-11T15:56:56.839Z,1.44
2022-12-11T15:59:33.992Z,1.51
2022-12-11T16:02:12.525Z,1.41
2022-12-11T16:04:46.975Z,1.34
2022-12-11T16:07:22.722Z,1.36
2022-12-11T16:09:57.696Z,1.30
2022-12-11T16:12:33.669Z,1.33
2022-12-11T16:15:11.183Z,1.24
2022-12-11T16:17:45.678Z,1.17
2022-12-11T16:20:20.704Z,1.08
2022-12-11T16:22:54.976Z,1.03
2022-12-11T16:25:29.926Z,1.00
2022-12-11T16:28:06.636Z,0.95
2022-12-11T16:30:43.661Z,0.81
2022-12-11T16:33:18.007Z,0.83
2022-12-11T16:35:52.657Z,0.89
2022-12-11T16:38:28.902Z,0.85
2022-12-11T16:41:03.754Z,0.81
2022-12-11T16:43:38.371Z,0.86
2022-12-11T16:46:18.961Z,0.71
2022-12-11T16:48:53.168Z,0.74
2022-12-11T16:51:29.581Z,0.77
2022-12-11T16:54:04.195Z,0.75
2022-12-11T16:56:38.956Z,0.67
2022-12-11T16:59:13.547Z,0.74
2022-12-11T17:01:51.294Z,0.74
2022-12-11T17:04:25.540Z,0.75
2022-12-11T17:07:00.039Z,0.73
2022-12-11T17:09:35.306Z,0.83
2022-12-11T17:12:10.319Z,0.81
2022-12-11T17:14:44.898Z,0.73
2022-12-11T17:17:21.306Z,0.72
2022-12-11T17:19:55.825Z,0.72
2022-12-11T17:22:30.463Z,0.64
2022-12-11T17:25:05.245Z,0.71
2022-12-11T17:27:39.951Z,0.72
2022-12-11T17:30:16.635Z,0.77
2022-12-11T17:32:55.502Z,0.86
2022-12-11T17:35:29.837Z,0.88
2022-12-11T17:38:04.294Z,0.64
2022-12-11T17:40:41.898Z,0.81
2022-12-11T17:43:17.189Z,0.78
2022-12-11T17:45:53.399Z,0.99
2022-12-11T17:48:29.875Z,4.53
2022-12-11T17:51:05.522Z,2.30
2022-12-11T17:53:40.907Z,1.85
2022-12-11T17:56:15.136Z,1.36
2022-12-11T17:58:49.690Z,1.27
2022-12-11T18:01:23.914Z,1.06
2022-12-11T18:04:01.521Z,0.96
2022-12-11T18:06:36.717Z,0.96
2022-12-11T18:09:13.567Z,0.83
2022-12-11T18:11:48.087Z,0.92
2022-12-11T18:14:24.014Z,0.80
2022-12-11T18:16:58.391Z,0.79
2022-12-11T18:19:34.247Z,0.85
2022-12-11T18:22:08.810Z,0.77
2022-12-11T18:24:43.298Z,0.65
2022-12-11T18:27:17.537Z,0.66
2022-12-11T18:29:53.654Z,0.59
2022-12-11T18:32:29.009Z,0.65
2022-12-11T18:35:05.956Z,0.59
2022-12-11T18:37:41.326Z,0.69
2022-12-11T18:40:16.268Z,0.73
2022-12-11T18:42:51.071Z,0.64
2022-12-11T18:45:25.923Z,0.76
2022-12-11T18:48:00.516Z,0.71
2022-12-11T18:50:37.207Z,0.59
2022-12-11T18:53:11.901Z,0.61
2022-12-11T18:55:49.258Z,0.60
2022-12-11T18:58:23.926Z,0.58
2022-12-11T19:00:58.698Z,0.63
2022-12-11T19:03:33.161Z,0.57
2022-12-11T19:06:11.004Z,0.66
2022-12-11T19:08:46.080Z,0.63
2022-12-11T19:11:24.701Z,0.83
2022-12-11T19:14:00.391Z,3.48
2022-12-11T19:16:37.341Z,2.83
2022-12-11T19:19:14.171Z,1.45
2022-12-11T19:21:51.596Z,0.99
2022-12-11T19:24:26.367Z,0.69
2022-12-11T19:27:01.659Z,0.67
2022-12-11T19:29:36.278Z,0.52
2022-12-11T19:32:11.012Z,0.34
2022-12-11T19:34:46.473Z,0.36
2022-12-11T19:37:22.944Z,0.35
2022-12-11T19:39:57.993Z,0.32
2022-12-11T19:42:32.810Z,0.43
2022-12-11T19:45:08.508Z,0.37
2022-12-11T19:47:43.244Z,0.33
2022-12-11T19:50:17.824Z,0.17
2022-12-11T19:52:53.948Z,0.18
2022-12-11T19:55:31.677Z,0.15
2022-12-11T19:58:06.762Z,1.60
2022-12-11T20:00:41.162Z,2.78
2022-12-11T20:03:16.160Z,3.07
2022-12-11T20:05:50.781Z,1.31
2022-12-11T20:08:44.199Z,0.77
2022-12-11T20:11:19.895Z,0.44
2022-12-11T20:13:55.623Z,0.20
2022-12-11T20:17:01.749Z,0.02
2022-12-11T20:19:24.918Z,-0.09
2022-12-11T20:21:59.615Z,-0.01
2022-12-11T20:24:36.653Z,-0.11
2022-12-11T20:27:12.491Z,-0.07
2022-12-11T20:29:48.020Z,0.02
2022-12-11T20:32:22.239Z,-0.36
2022-12-11T20:34:57.479Z,-0.38
2022-12-11T20:37:32.071Z,-0.23
2022-12-11T20:40:10.347Z,-0.34
2022-12-11T20:42:44.519Z,-0.58
2022-12-11T20:45:19.812Z,-0.45
2022-12-11T20:47:54.168Z,-0.55
2022-12-11T20:50:29.944Z,-0.59
2022-12-11T20:53:04.541Z,-0.51
2022-12-11T20:55:42.197Z,-0.60
2022-12-11T20:58:16.403Z,-0.61
2022-12-11T21:00:51.790Z,-0.72
2022-12-11T21:03:26.711Z,-0.82
2022-12-11T21:06:01.636Z,-0.74
2022-12-11T21:08:35.890Z,-0.82
2022-12-11T21:11:11.983Z,-0.73
2022-12-11T21:13:46.185Z,-0.73
2022-12-11T21:16:21.450Z,-0.67
2022-12-11T21:18:56.779Z,-0.78
2022-12-11T21:21:33.107Z,-0.77
2022-12-11T21:24:08.740Z,-0.68
2022-12-11T21:26:44.688Z,-0.82
2022-12-11T21:29:19.030Z,-0.74
2022-12-11T21:31:54.325Z,-0.71
2022-12-11T21:34:29.076Z,-0.78
2022-12-11T21:37:07.582Z,-0.67
2022-12-11T21:39:41.772Z,-0.71
2022-12-11T21:42:17.844Z,1.76
2022-12-11T21:47:47.245Z,0.57
2022-12-11T21:50:21.563Z,0.02
2022-12-11T21:52:57.098Z,-0.29
2022-12-11T21:55:31.238Z,-0.54
2022-12-11T21:58:07.597Z,-0.48
2022-12-11T22:00:42.090Z,-0.51
2022-12-11T22:03:16.734Z,-0.58
2022-12-11T22:05:51.013Z,-0.63
2022-12-11T22:08:25.934Z,-0.57
2022-12-11T22:11:01.109Z,-0.51
2022-12-11T22:13:36.969Z,-0.60
2022-12-11T22:16:11.159Z,-0.65
2022-12-11T22:18:46.173Z,-0.68
2022-12-11T22:21:20.612Z,-0.54
2022-12-11T22:23:55.297Z,-0.51
2022-12-11T22:26:30.218Z,0.46
2022-12-11T22:29:06.490Z,-0.08
2022-12-11T22:31:40.755Z,-0.34
2022-12-11T22:34:15.388Z,-0.49
2022-12-11T22:36:49.614Z,-0.58
2022-12-11T22:39:24.529Z,-0.57
2022-12-11T22:41:59.723Z,-0.52
2022-12-11T22:44:35.527Z,-0.53
2022-12-11T22:47:09.689Z,-0.54
2022-12-11T22:49:44.200Z,-0.70
2022-12-11T22:52:18.664Z,-0.54
2022-12-11T22:54:53.566Z,-0.66
2022-12-11T22:57:27.967Z,-0.62
2022-12-11T23:00:05.078Z,-0.61
2022-12-11T23:02:39.909Z,-0.61
2022-12-11T23:05:14.978Z,-0.55
2022-12-11T23:07:50.048Z,-0.71
2022-12-11T23:10:25.518Z,-0.58
2022-12-11T23:12:59.625Z,-0.67
2022-12-11T23:15:35.809Z,-0.59
2022-12-11T23:18:10.107Z,-0.61
2022-12-11T23:20:44.584Z,-0.49
2022-12-11T23:23:18.900Z,-0.47
2022-12-11T23:25:53.551Z,-0.45
2022-12-11T23:28:27.734Z,-0.42
2022-12-11T23:31:04.057Z,-0.71
2022-12-11T23:33:38.565Z,-0.75
2022-12-11T23:36:13.911Z,-0.62
2022-12-11T23:38:54.152Z,-0.44
2022-12-11T23:41:30.005Z,-0.59
2022-12-11T23:44:04.549Z,-0.59
2022-12-11T23:46:42.685Z,-0.58
2022-12-11T23:49:16.887Z,-0.75
2022-12-11T23:51:52.310Z,-0.67
2022-12-11T23:54:26.435Z,-0.61
2022-12-11T23:57:01.165Z,-0.73
2022-12-11T23:59:35.423Z,-0.70
